Flight Track Log - Related Links

Times and Time Zones

All times are in EDT time to prevent confusion due to time zone crossing. See the EJM826 flight status page for this flight to view local times or setup timezone preferences in your user account.


Time Position Orientation Groundspeed Altitude Reporting Facility
EDT Latitude Longitude Course Direction KTS MPH feet Rate Location/Type
Thu 02:25:42 PM 29.5700 -98.5206 312° West 163 188 3,500  Level Houston Center
Thu 02:26:05 PM 29.5883 -98.5264 345° North 173 199 4,500 2,618 Climbing Houston Center
Thu 02:26:37 PM 29.6144 -98.5033 38° Northeast 236 272 5,900 2,323 Climbing Houston Center
Thu 02:27:07 PM 29.6214 -98.4736 75° East 234 269 6,900 2,283 Climbing Houston Center
Thu 02:28:09 PM 29.6278 -98.3747 86° East 288 331 9,400 2,274 Climbing Houston Center
Thu 02:29:11 PM 29.6331 -98.2625 87° East 324 373 11,600 1,935 Climbing Houston Center
Thu 02:30:13 PM 29.6383 -98.1517 87° East 345 397 13,400 1,790 Climbing Houston Center
Thu 02:31:15 PM 29.6439 -98.0269 87° East 361 415 15,300 1,694 Climbing Houston Center
Thu 02:32:17 PM 29.6500 -97.9081 87° East 372 428 16,900 1,306 Climbing Houston Center
Thu 02:33:19 PM 29.6550 -97.7958 87° East 386 444 18,000 1,355 Climbing Houston Center
Thu 02:34:21 PM 29.6550 -97.6683 90° East 398 458 19,700 1,790 Climbing Houston Center
Thu 02:35:23 PM 29.6564 -97.5192 89° East 391 450 21,700 1,548 Climbing Houston Center
Thu 02:36:25 PM 29.6567 -97.3928 90° East 394 453 22,900 1,065 Climbing Houston Center
Thu 02:37:27 PM 29.6581 -97.2617 89° East 406 467 23,900 1,161 Climbing Houston Center
Thu 02:38:29 PM 29.6592 -97.1256 89° East 420 483 25,300 1,210 Climbing Houston Center
Thu 02:39:31 PM 29.6606 -96.9906 89° East 420 483 26,400 1,113 Climbing Houston Center
Thu 02:40:33 PM 29.6611 -96.8536 90° East 424 488 27,600 871 Climbing Houston Center
Thu 02:41:35 PM 29.6614 -96.7164 90° East 425 489 28,200 581 Climbing Houston Center
Thu 02:42:37 PM 29.6622 -96.5744 90° East 435 501 28,800 677 Climbing Houston Center
Thu 02:43:39 PM 29.6617 -96.3994 90° East 452 520 29,600 774 Climbing Houston Center
Thu 02:44:41 PM 29.6839 -96.2542 80° East 463 533 30,400 726 Climbing Houston Center
Thu 02:45:43 PM 29.7258 -96.1111 71° East 471 542 31,100 726 Climbing Houston Center
Thu 02:46:45 PM 29.7886 -95.9800 61° Northeast 478 550 31,900 823 Climbing Houston Center
Thu 02:47:47 PM 29.8536 -95.8436 61° Northeast 482 555 32,800 1,016 Climbing Houston Center
Thu 02:48:49 PM 29.9186 -95.7086 61° Northeast 480 552 34,000 1,016 Climbing Houston Center
Thu 02:49:51 PM 29.9839 -95.5750 61° Northeast 477 549 34,900 1,113 Climbing Houston Center
Thu 02:50:53 PM 30.0608 -95.4122 61° Northeast 477 549 36,300 823 Climbing Houston Center
Thu 02:51:55 PM 30.1253 -95.2781 61° Northeast 477 549 36,600 677 Climbing Houston Center
Thu 02:52:57 PM 30.1903 -95.1397 61° Northeast 485 558 37,700 871 Climbing Houston Center
Thu 02:53:59 PM 30.2539 -95.0033 62° Northeast 483 556 38,400 823 Climbing Houston Center
Thu 02:55:01 PM 30.3181 -94.8678 61° Northeast 480 552 39,400 919 Climbing Houston Center
Thu 02:56:03 PM 30.3814 -94.7311 62° Northeast 482 555 40,300 774 Climbing Houston Center
Thu 02:57:05 PM 30.4500 -94.5828 62° Northeast 480 552 41,000 339 Climbing Houston Center
Thu 02:58:07 PM 30.5139 -94.4439 62° Northeast 483 556 41,000  Level Houston Center
Thu 02:59:09 PM 30.5794 -94.3017 62° Northeast 494 568 41,000  Level Houston Center
Thu 03:00:11 PM 30.6478 -94.1536 62° Northeast 509 586 41,000  Level Houston Center
Thu 03:01:13 PM 30.7314 -93.9733 62° Northeast 522 601 41,000  Level Houston Center
Thu 03:02:15 PM 30.8008 -93.8206 62° Northeast 528 608 41,000  Level Houston Center
Thu 03:03:17 PM 30.8700 -93.6683 62° Northeast 529 609 41,000  Level Houston Center
Thu 03:04:19 PM 30.9392 -93.5164 62° Northeast 527 606 41,000  Level Houston Center
Thu 03:05:21 PM 31.0086 -93.3617 62° Northeast 534 615 41,000 -48 Level Houston Center
Thu 03:06:23 PM 31.0769 -93.2081 63° Northeast 532 612 40,900  Descending Houston Center
Thu 03:07:25 PM 31.1447 -93.0550 63° Northeast 531 611 41,000 48 Climbing Houston Center
Thu 03:08:27 PM 31.2264 -92.8736 62° Northeast 526 605 41,000  Level Houston Center
Thu 03:09:29 PM 31.2931 -92.7242 62° Northeast 521 600 41,000  Level Houston Center
Thu 03:10:32 PM 31.3592 -92.5703 63° Northeast 527 606 41,000 -48 Level Houston Center
Thu 03:11:34 PM 31.4267 -92.4194 62° Northeast 525 604 40,900  Descending Houston Center
Thu 03:12:36 PM 31.4931 -92.2650 63° Northeast 530 610 41,000  Climbing Houston Center
Thu 03:13:38 PM 31.5603 -92.1131 63° Northeast 525 604 40,900  Descending Houston Center
Thu 03:14:40 PM 31.6297 -91.9519 63° Northeast 529 609 41,000 48 Climbing Houston Center
Thu 03:15:42 PM 31.6967 -91.7986 63° Northeast 528 608 41,000  Level Houston Center
Thu 03:16:44 PM 31.7767 -91.6136 63° Northeast 530 610 41,000  Level Houston Center
Thu 03:17:46 PM 31.8428 -91.4589 63° Northeast 529 609 41,000  Level Houston Center
Thu 03:18:48 PM 31.9083 -91.3047 63° Northeast 529 609 41,000  Level Houston Center
Thu 03:19:50 PM 31.9742 -91.1483 64° Northeast 534 615 41,000  Level Houston Center
Thu 03:20:52 PM 32.0400 -90.9947 63° Northeast 527 606 41,000  Level Houston Center
Thu 03:21:54 PM 32.1064 -90.8389 63° Northeast 532 612 41,000  Level Houston Center
Thu 03:22:57 PM 32.1728 -90.6781 64° Northeast 528 608 41,000  Level Houston Center
Thu 03:23:59 PM 32.2503 -90.4908 64° Northeast 528 608 41,000  Level Houston Center
Thu 03:25:01 PM 32.3156 -90.3344 64° Northeast 530 610 41,000  Level Houston Center
Thu 03:26:03 PM 32.3792 -90.1794 64° Northeast 526 605 41,000  Level Houston Center
Thu 03:27:05 PM 32.4492 -90.0103 64° Northeast 524 603 41,000  Level Houston Center
Thu 03:28:07 PM 32.5136 -89.8547 64° Northeast 525 604 41,000  Level Houston Center
Thu 03:29:23 PM 32.5886 -89.6644 65° Northeast 524 603 41,000  Level Memphis Center
Thu 03:30:23 PM 32.6522 -89.5061 64° Northeast 524 603 41,000  Level Memphis Center
Thu 03:31:23 PM 32.7158 -89.3497 64° Northeast 524 603 41,000  Level Memphis Center
Thu 03:33:23 PM 32.8444 -89.0369 64° Northeast 524 603 41,000 133 Level Memphis Center
Thu 03:34:23 PM 32.9053 -88.8825 65° Northeast 524 603 41,400 700 Climbing Memphis Center
Thu 03:35:23 PM 32.9661 -88.7306 64° Northeast 519 597 42,400 505 Climbing Memphis Center
Thu 03:37:33 PM 33.0906 -88.4075 65° Northeast 497 572 43,000 189 Climbing Atlanta Center
Thu 03:38:33 PM 33.1525 -88.2517 65° Northeast 502 578 43,000  Level Atlanta Center
Thu 03:39:33 PM 33.2119 -88.0958 65° Northeast 507 583 43,000  Level Atlanta Center
Thu 03:40:33 PM 33.2733 -87.9419 64° Northeast 507 583 43,000  Level Atlanta Center
Thu 03:41:33 PM 33.3322 -87.7856 66° East 512 589 43,000  Level Atlanta Center
Thu 03:42:33 PM 33.3914 -87.6289 66° East 512 589 43,000  Level Atlanta Center
Thu 03:43:33 PM 33.4522 -87.4722 65° Northeast 512 589 43,000  Level Atlanta Center
Thu 03:44:33 PM 33.5108 -87.3125 66° East 512 589 43,000  Level Atlanta Center
Thu 03:45:33 PM 33.5692 -87.1553 66° East 512 589 43,000  Level Atlanta Center
Thu 03:46:33 PM 33.6381 -86.9806 65° Northeast 521 600 43,000  Level Atlanta Center
Thu 03:47:33 PM 33.7167 -86.8383 56° Northeast 515 593 43,000  Level Atlanta Center
Thu 03:48:33 PM 33.8111 -86.7139 48° Northeast 505 581 43,000  Level Atlanta Center
Thu 03:49:33 PM 33.9078 -86.5894 47° Northeast 505 581 43,000  Level Atlanta Center
Thu 03:50:33 PM 34.0064 -86.4619 47° Northeast 505 581 43,000  Level Atlanta Center
Thu 03:51:33 PM 34.1025 -86.3367 47° Northeast 505 581 43,000  Level Atlanta Center
Thu 03:52:33 PM 34.1967 -86.2139 47° Northeast 510 587 43,000  Level Atlanta Center
Thu 03:53:33 PM 34.2928 -86.0881 47° Northeast 510 587 43,000  Level Atlanta Center
Thu 03:54:33 PM 34.3886 -85.9594 48° Northeast 505 581 43,000  Level Atlanta Center
Thu 03:55:33 PM 34.4867 -85.8331 47° Northeast 505 581 43,000  Level Atlanta Center
Thu 03:56:33 PM 34.5803 -85.7114 47° Northeast 498 573 43,000  Level Atlanta Center
Thu 03:57:33 PM 34.6736 -85.5819 49° Northeast 498 573 43,000  Level Atlanta Center
Thu 03:58:33 PM 34.7692 -85.4572 47° Northeast 504 580 43,000  Level Atlanta Center
Thu 03:59:33 PM 34.8644 -85.3247 49° Northeast 504 580 43,000  Level Atlanta Center
Thu 04:00:33 PM 34.9597 -85.1994 47° Northeast 504 580 43,000  Level Atlanta Center
Thu 04:01:33 PM 35.0547 -85.0689 48° Northeast 504 580 43,000  Level Atlanta Center
Thu 04:02:33 PM 35.1494 -84.9406 48° Northeast 504 580 43,000  Level Atlanta Center
Thu 04:03:33 PM 35.2444 -84.8119 48° Northeast 504 580 43,000  Level Atlanta Center
Thu 04:04:33 PM 35.3369 -84.6803 49° Northeast 509 586 43,000  Level Atlanta Center
Thu 04:05:33 PM 35.4333 -84.5511 47° Northeast 509 586 43,000  Level Atlanta Center
Thu 04:06:33 PM 35.5258 -84.4189 49° Northeast 504 580 43,000  Level Atlanta Center
Thu 04:07:33 PM 35.6200 -84.2917 48° Northeast 504 580 43,000  Level Atlanta Center
Thu 04:08:33 PM 35.7142 -84.1642 48° Northeast 504 580 43,000  Level Atlanta Center
Thu 04:09:33 PM 35.8081 -84.0311 49° Northeast 504 580 43,000  Level Atlanta Center
Thu 04:10:33 PM 35.8997 -83.8978 50° Northeast 504 580 43,000  Level Atlanta Center
Thu 04:11:33 PM 35.9661 -83.7361 63° Northeast 510 587 43,000  Level Atlanta Center
Thu 04:12:33 PM 36.0283 -83.5767 64° Northeast 510 587 43,000  Level Atlanta Center
Thu 04:13:33 PM 36.0839 -83.4297 65° Northeast 517 595 43,000  Level Atlanta Center
Thu 04:14:33 PM 36.1456 -83.2700 64° Northeast 517 595 43,000  Level Atlanta Center
Thu 04:15:33 PM 36.2092 -83.1047 64° Northeast 522 601 43,000  Level Atlanta Center
Thu 04:16:33 PM 36.2703 -82.9392 65° Northeast 522 601 43,000  Level Atlanta Center
Thu 04:17:33 PM 36.3333 -82.7758 64° Northeast 522 601 43,000  Level Atlanta Center
Thu 04:18:33 PM 36.3942 -82.6097 65° Northeast 522 601 43,000  Level Atlanta Center
Thu 04:19:33 PM 36.4567 -82.4461 65° Northeast 522 601 43,000  Level Atlanta Center
Thu 04:20:33 PM 36.5192 -82.2822 65° Northeast 522 601 43,000  Level Atlanta Center
Thu 04:21:33 PM 36.5792 -82.1153 66° East 528 608 43,000  Level Atlanta Center
Thu 04:22:33 PM 36.6431 -81.9483 64° Northeast 528 608 43,000  Level Atlanta Center
Thu 04:23:33 PM 36.7028 -81.7861 65° Northeast 523 602 43,000 -250 Level Atlanta Center
Thu 04:24:33 PM 36.7622 -81.6239 65° Northeast 518 596 42,500 -600 Descending Atlanta Center
Thu 04:25:33 PM 36.8233 -81.4431 67° East 504 580 41,800 -700 Descending Atlanta Center
Thu 04:26:33 PM 36.8783 -81.2933 65° Northeast 509 586 41,100 -284 Descending Atlanta Center
Thu 04:28:22 PM 36.9878 -80.9903 66° East 530 610 41,000 -35 Descending Washington Center
Thu 04:29:23 PM 37.0564 -80.8075 65° Northeast 530 610 41,000  Level Washington Center
Thu 04:30:22 PM 37.1236 -80.6481 62° Northeast 525 604 41,000  Level Washington Center
Thu 04:31:22 PM 37.2011 -80.4967 57° Northeast 513 590 41,000  Level Washington Center
Thu 04:32:24 PM 37.2781 -80.3450 57° Northeast 513 590 41,000  Level Washington Center
Thu 04:33:25 PM 37.3547 -80.1956 57° Northeast 513 590 41,000  Level Washington Center
Thu 04:34:22 PM 37.4267 -80.0586 56° Northeast 513 590 41,000  Level Washington Center
Thu 04:35:22 PM 37.5053 -79.9089 56° Northeast 507 583 41,000  Level Washington Center
Thu 04:36:23 PM 37.5747 -79.7164 65° Northeast 528 608 41,000  Level Washington Center
Thu 04:37:24 PM 37.6194 -79.5614 70° East 528 608 41,000  Level Washington Center
Thu 04:38:24 PM 37.6736 -79.3700 70° East 521 600 41,000  Level Washington Center
Thu 04:39:23 PM 37.7203 -79.2147 69° East 521 600 41,000  Level Washington Center
Thu 04:40:24 PM 37.7692 -79.0386 71° East 521 600 41,000  Level Washington Center
Thu 04:41:24 PM 37.8244 -78.8492 70° East 521 600 41,000  Level Washington Center
Thu 04:42:24 PM 37.8728 -78.6775 70° East 521 600 41,000  Level Washington Center
Thu 04:43:24 PM 37.9211 -78.5058 70° East 521 600 41,000  Level Washington Center
Thu 04:44:24 PM 37.9689 -78.3311 71° East 521 600 41,000 -407 Level Washington Center
Thu 04:45:22 PM 38.0122 -78.1642 72° East 516 594 40,200 -864 Descending Washington Center
Thu 04:46:22 PM 38.0822 -78.0133 59° Northeast 501 577 39,300 -595 Descending Washington Center
Thu 04:47:23 PM 38.1558 -77.8653 58° Northeast 493 567 39,000 -149 Descending Washington Center
Thu 04:48:23 PM 38.2317 -77.7144 57° Northeast 499 574 39,000  Level Washington Center
Thu 04:49:24 PM 38.3072 -77.5631 58° Northeast 504 580 39,000 -248 Level Washington Center
Thu 04:50:24 PM 38.3867 -77.4142 56° Northeast 504 580 38,500 -1,373 Descending Washington Center
Thu 04:51:22 PM 38.4719 -77.2861 50° Northeast 509 586 36,300 -2,186 Descending Washington Center
Thu 04:52:22 PM 38.5675 -77.1556 47° Northeast 509 586 34,200 -1,550 Descending Washington Center
Thu 04:53:22 PM 38.6650 -77.0328 44° Northeast 498 573 33,200 -793 Descending Washington Center
Thu 04:54:23 PM 38.7664 -76.9122 43° Northeast 488 562 32,600 -1,337 Descending Washington Center
Thu 05:00:15 PM 39.3180 -76.2150 43° Northeast 457 526 24,000 -1,347 Descending FlightAware ADS-B
Thu 05:00:55 PM 39.3790 -76.1380 44° Northeast 454 522 23,800 -1,745 Descending FlightAware ADS-B
Thu 05:02:05 PM 39.4860 -76.0010 45° Northeast 456 525 20,800 -2,520 Descending FlightAware ADS-B
Thu 05:02:35 PM 39.5260 -75.9490 45° Northeast 445 512 19,600 -1,481 Descending FlightAware ADS-B
Thu 05:03:22 PM 39.5900 -75.8710 43° Northeast 438 504 18,900 -506 Descending FlightAware ADS-B
Thu 05:03:58 PM 39.6360 -75.8170 42° Northeast 438 504 18,900  Level FlightAware ADS-B
Thu 05:04:23 PM 39.6680 -75.7800 42° Northeast 438 504 18,900  Level FlightAware ADS-B
Thu 05:04:59 PM 39.7140 -75.7260 42° Northeast 438 504 18,900  Level FlightAware ADS-B
Thu 05:05:35 PM 39.7600 -75.6720 42° Northeast 438 504 18,900  Level FlightAware ADS-B
Thu 05:06:11 PM 39.8060 -75.6180 42° Northeast 438 504 18,900  Level FlightAware ADS-B
Thu 05:06:36 PM 39.8380 -75.5800 42° Northeast 438 504 18,900  Level FlightAware ADS-B
Thu 05:06:49 PM 39.8550 -75.5610 41° Northeast 438 504 18,900 -7,224 Level FlightAware ADS-B
Thu 05:07:25 PM 39.9833 -75.4333 41° Northeast 430 495 13,000 -3,688 Descending Philadelphia TRACON
Thu 05:08:25 PM 40.0833 -75.3333 37° Northeast 419 482 13,000 -333 Level Philadelphia TRACON
Thu 05:09:31 PM 40.1833 -75.2500 32° Northeast 402 463 12,300 -1,340 Descending Philadelphia TRACON
Thu 05:11:33 PM 40.3500 -75.0833 37° Northeast 341 392 8,800 -1,660 Descending New York TRACON
Thu 05:12:39 PM 40.4167 -74.9833 49° Northeast 314 361 7,100 -1,650 Descending New York TRACON
Thu 05:13:33 PM 40.4667 -74.9167 45° Northeast 318 366 5,500 -1,500 Descending New York TRACON
Thu 05:14:39 PM 40.5333 -74.8167 49° Northeast 320 368 4,100 -667 Descending New York TRACON
Thu 05:15:39 PM 40.5833 -74.7333 52° Northeast 318 366 4,100  Level New York TRACON
Thu 05:16:33 PM 40.6500 -74.6833 30° Northeast 313 360 4,100  Level New York TRACON
Thu 05:17:33 PM 40.7333 -74.6167 31° Northeast 310 357 4,100  Level New York TRACON
Thu 05:18:39 PM 40.8167 -74.6000 North 298 343 4,100  Level New York TRACON
Thu 05:19:39 PM 40.9000 -74.5833 North 305 351 4,100 -350 Level New York TRACON
Thu 05:20:39 PM 40.9833 -74.5500 17° North 324 373 3,400 -500 Descending New York TRACON
Thu 05:21:39 PM 41.0333 -74.4667 51° Northeast 303 349 3,100 -150 Descending New York TRACON
Thu 05:22:39 PM 41.0500 -74.3667 78° East 257 296 3,100  Level New York TRACON
Thu 05:23:39 PM 41.0833 -74.2833 62° Northeast 256 295 3,100  Level New York TRACON
Thu 05:24:33 PM 41.0833 -74.2000 90° East 234 269 3,100  Level New York TRACON
Thu 05:25:39 PM 41.0667 -74.1333 108° East 205 236 3,100 -100 Level New York TRACON
Thu 05:26:33 PM 41.0500 -74.0833 114° Southeast 189 217 2,900 -526 Descending New York TRACON
Thu 05:27:33 PM 41.0167 -74.0500 143° Southeast 155 178 2,100 -650 Descending New York TRACON
Thu 05:28:33 PM 40.9667 -74.0500 180° South 143 165 1,600 -250 Descending New York TRACON
Thu 05:29:33 PM 40.9333 -74.0500 180° South 150 173 1,600 -333 Level New York TRACON
Thu 05:30:39 PM 40.9000 -74.0500 180° South 120 138 900 -636 Descending New York TRACON
Thu 05:32:00 PM 40.8500 -74.0500 164° South  Level FlightAware Approximate
Thu 05:39:00 PM 40.8501 -74.0608 164° South  Level Estimated
Thu 05:40:00 PM 40.8501 -74.0608 164° South  Level Estimated
Thu 05:41:00 PM 40.8501 -74.0608 164° South  Level Estimated
Thu 05:42:00 PM 40.8501 -74.0608 164° South  Level Estimated
Thu 05:43:00 PM 40.8501 -74.0608 164° South  Level Estimated
Thu 05:44:00 PM 40.8501 -74.0608 164° South  Level Estimated
Thu 05:45:00 PM 40.8501 -74.0608 164° South  Level Estimated
Thu 05:46:00 PM 40.8501 -74.0608 164° South  Level Estimated

Login

Don't have an account? Register now (free) for customized features, flight alerts, and more!